createdAt,value
2022-08-18T00:00:26.380Z,5.45
2022-08-18T00:03:12.335Z,6.53
2022-08-18T00:05:58.686Z,5.93
2022-08-18T00:08:33.877Z,6.18
2022-08-18T00:11:08.311Z,6.20
2022-08-18T00:16:12.681Z,5.07
2022-08-18T00:18:45.313Z,6.03
2022-08-18T00:21:18.548Z,6.50
2022-08-18T00:23:51.315Z,4.30
2022-08-18T00:28:55.840Z,6.95
2022-08-18T00:34:00.886Z,7.30
2022-08-18T00:36:35.085Z,4.05
2022-08-18T00:39:06.978Z,8.43
2022-08-18T00:44:16.483Z,5.00
2022-08-18T00:46:49.120Z,6.20
2022-08-18T00:49:21.372Z,6.22
2022-08-18T00:51:53.910Z,5.50
2022-08-18T00:54:29.902Z,5.30
2022-08-18T00:57:06.880Z,4.38
2022-08-18T00:59:38.683Z,5.63
2022-08-18T01:02:19.554Z,4.93
2022-08-18T01:05:10.126Z,4.78
2022-08-18T01:07:48.096Z,6.95
2022-08-18T01:10:22.791Z,5.25
2022-08-18T01:12:58.064Z,10.75
2022-08-18T01:15:30.630Z,5.85
2022-08-18T01:18:29.542Z,7.32
2022-08-18T01:21:43.491Z,6.10
2022-08-18T01:24:21.635Z,5.63
2022-08-18T01:26:53.726Z,5.20
2022-08-18T01:29:27.924Z,4.47
2022-08-18T01:32:00.363Z,5.32
2022-08-18T01:34:33.547Z,5.13
2022-08-18T01:37:05.678Z,5.55
2022-08-18T01:40:59.713Z,5.97
2022-08-18T01:42:31.896Z,5.03
2022-08-18T01:47:47.405Z,6.53
2022-08-18T01:50:20.866Z,4.05
2022-08-18T01:55:28.356Z,7.20
2022-08-18T01:58:01.850Z,4.68
2022-08-18T02:00:34.748Z,5.22
2022-08-18T02:03:09.338Z,5.45
2022-08-18T02:05:48.788Z,5.07
2022-08-18T02:08:22.128Z,5.50
2022-08-18T02:11:00.768Z,5.30
2022-08-18T02:13:33.929Z,4.47
2022-08-18T02:16:08.001Z,5.53
2022-08-18T02:18:48.204Z,7.95
2022-08-18T02:21:21.849Z,5.63
2022-08-18T02:23:54.471Z,5.65
2022-08-18T02:26:26.234Z,8.02
2022-08-18T02:28:58.834Z,4.13
2022-08-18T02:31:30.719Z,5.00
2022-08-18T02:36:35.648Z,7.10
2022-08-18T02:39:07.942Z,5.15
2022-08-18T02:44:12.678Z,4.93
2022-08-18T02:49:17.061Z,4.15
2022-08-18T02:54:24.383Z,4.07
2022-08-18T02:56:57.339Z,5.28
2022-08-18T02:59:31.881Z,6.70
2022-08-18T03:02:07.864Z,4.63
2022-08-18T03:04:40.263Z,6.72
2022-08-18T03:07:13.205Z,4.43
2022-08-18T03:09:45.113Z,4.28
2022-08-18T03:14:50.187Z,4.32
2022-08-18T03:17:22.760Z,6.38
2022-08-18T03:19:54.954Z,5.20
2022-08-18T03:22:28.132Z,5.47
2022-08-18T03:25:02.293Z,7.10
2022-08-18T03:27:34.459Z,4.80
2022-08-18T03:30:11.298Z,5.22
2022-08-18T03:32:45.763Z,5.43
2022-08-18T03:35:18.980Z,3.97
2022-08-18T03:37:50.917Z,4.85
2022-08-18T03:40:23.929Z,4.05
2022-08-18T03:42:56.648Z,4.63
2022-08-18T03:45:32.312Z,6.20
2022-08-18T03:48:04.854Z,4.07
2022-08-18T03:50:37.909Z,4.43
2022-08-18T03:53:11.705Z,5.90
2022-08-18T03:55:43.652Z,4.93
2022-08-18T04:00:48.092Z,5.30
2022-08-18T04:03:20.919Z,5.45
2022-08-18T04:08:25.242Z,5.70
2022-08-18T04:10:57.013Z,5.05
2022-08-18T04:13:29.303Z,5.38
2022-08-18T04:16:01.478Z,6.60
2022-08-18T04:18:33.394Z,6.35
2022-08-18T04:23:43.599Z,4.88
2022-08-18T04:26:19.406Z,5.35
2022-08-18T04:28:51.463Z,5.65
2022-08-18T04:31:25.200Z,4.57
2022-08-18T04:33:59.235Z,5.03
2022-08-18T04:36:34.132Z,5.68
2022-08-18T04:39:09.240Z,5.93
2022-08-18T04:41:43.589Z,5.15
2022-08-18T04:44:17.961Z,5.30
2022-08-18T04:46:52.260Z,5.55
2022-08-18T04:49:26.564Z,6.60
2022-08-18T04:52:37.116Z,5.10
2022-08-18T04:55:11.063Z,6.30
2022-08-18T04:57:42.862Z,5.25
2022-08-18T05:00:16.418Z,5.43
2022-08-18T05:02:48.724Z,5.93
2022-08-18T05:05:22.349Z,5.90
2022-08-18T05:07:55.007Z,5.97
2022-08-18T05:10:26.788Z,5.93
2022-08-18T05:12:59.486Z,6.07
2022-08-18T05:15:42.267Z,6.05
2022-08-18T05:18:27.282Z,7.50
2022-08-18T05:21:00.289Z,4.95
2022-08-18T05:23:34.332Z,5.82
2022-08-18T05:26:06.116Z,5.45
2022-08-18T05:28:38.818Z,4.95
2022-08-18T05:31:14.009Z,5.05
2022-08-18T05:33:48.254Z,6.38
2022-08-18T05:36:51.294Z,4.95
2022-08-18T05:39:27.610Z,10.85
2022-08-18T05:42:18.188Z,8.52
2022-08-18T05:44:52.294Z,6.57
2022-08-18T05:47:31.860Z,4.95
2022-08-18T05:50:10.525Z,5.18
2022-08-18T05:52:54.212Z,7.03
2022-08-18T05:55:49.549Z,5.10
2022-08-18T05:58:38.254Z,4.75
2022-08-18T06:01:31.678Z,8.63
2022-08-18T06:04:12.534Z,5.10
2022-08-18T06:06:47.767Z,5.45
2022-08-18T06:09:37.218Z,6.15
2022-08-18T06:12:27.431Z,6.40
2022-08-18T06:15:24.642Z,7.30
2022-08-18T06:18:28.913Z,6.18
2022-08-18T06:21:29.016Z,5.32
2022-08-18T06:24:16.269Z,5.00
2022-08-18T06:27:03.356Z,4.88
2022-08-18T06:29:53.036Z,6.85
2022-08-18T06:33:00.331Z,6.90
2022-08-18T06:35:52.027Z,6.22
2022-08-18T06:38:39.897Z,5.20
2022-08-18T06:41:40.772Z,4.45
2022-08-18T06:44:44.638Z,4.80
2022-08-18T06:47:38.503Z,6.18
2022-08-18T06:50:20.109Z,4.45
2022-08-18T06:52:56.768Z,8.52
2022-08-18T06:55:46.037Z,8.73
2022-08-18T06:58:20.614Z,5.80
2022-08-18T07:00:54.956Z,7.75
2022-08-18T07:03:37.185Z,4.72
2022-08-18T07:06:21.790Z,5.40
2022-08-18T07:09:15.299Z,7.00
2022-08-18T07:12:09.511Z,6.38
2022-08-18T07:14:47.507Z,4.38
2022-08-18T07:17:43.668Z,14.00
2022-08-18T07:20:25.299Z,5.78
2022-08-18T07:23:08.056Z,6.00
2022-08-18T07:25:44.337Z,5.95
2022-08-18T07:28:29.170Z,6.25
2022-08-18T07:31:27.291Z,6.53
2022-08-18T07:34:41.203Z,8.85
2022-08-18T07:37:28.620Z,6.30
2022-08-18T07:40:20.821Z,6.85
2022-08-18T07:43:01.255Z,5.20
2022-08-18T07:45:41.474Z,6.13
2022-08-18T07:48:38.579Z,5.43
2022-08-18T07:51:21.361Z,6.50
2022-08-18T07:54:37.740Z,5.55
2022-08-18T07:57:06.897Z,6.05
2022-08-18T07:59:59.791Z,5.93
2022-08-18T08:02:50.502Z,6.63
2022-08-18T08:05:39.358Z,5.45
2022-08-18T08:08:21.364Z,5.07
2022-08-18T08:11:07.014Z,5.68
2022-08-18T08:13:58.417Z,4.70
2022-08-18T08:16:57.554Z,4.97
2022-08-18T08:20:10.861Z,6.25
2022-08-18T08:23:15.511Z,6.47
2022-08-18T08:26:32.863Z,5.43
2022-08-18T08:29:33.533Z,4.90
2022-08-18T08:32:11.675Z,4.75
2022-08-18T08:34:53.485Z,7.35
2022-08-18T08:37:36.525Z,6.40
2022-08-18T08:40:26.373Z,8.25
2022-08-18T08:42:58.537Z,7.60
2022-08-18T08:45:42.417Z,7.93
2022-08-18T08:48:25.545Z,6.97
2022-08-18T08:50:59.314Z,8.25
2022-08-18T08:53:53.611Z,8.55
2022-08-18T08:56:30.913Z,6.85
2022-08-18T08:59:12.282Z,7.50
2022-08-18T09:01:49.576Z,6.80
2022-08-18T09:04:55.787Z,6.13
2022-08-18T09:07:43.799Z,6.05
2022-08-18T09:10:40.828Z,7.22
2022-08-18T09:13:29.175Z,6.35
2022-08-18T09:16:39.864Z,6.43
2022-08-18T09:19:37.168Z,5.72
2022-08-18T09:22:33.823Z,5.80
2022-08-18T09:25:13.367Z,6.07
2022-08-18T09:28:10.470Z,7.43
2022-08-18T09:30:47.755Z,6.05
2022-08-18T09:33:33.868Z,5.80
2022-08-18T09:36:40.219Z,6.30
2022-08-18T09:42:52.619Z,4.82
2022-08-18T09:45:33.272Z,5.65
2022-08-18T09:48:12.060Z,4.30
2022-08-18T09:51:17.492Z,4.38
2022-08-18T09:53:50.730Z,5.13
2022-08-18T09:56:53.922Z,6.18
2022-08-18T09:59:34.320Z,5.20
2022-08-18T10:02:18.724Z,5.22
2022-08-18T10:05:20.134Z,6.45
2022-08-18T10:08:21.630Z,6.18
2022-08-18T10:11:13.169Z,6.45
2022-08-18T10:14:12.697Z,6.28
2022-08-18T10:17:23.856Z,7.28
2022-08-18T10:20:09.045Z,6.22
2022-08-18T10:22:59.579Z,6.85
2022-08-18T10:25:47.542Z,7.32
2022-08-18T10:28:59.487Z,5.25
2022-08-18T10:32:06.281Z,6.60
2022-08-18T10:37:47.294Z,5.95
2022-08-18T10:40:26.632Z,3.90
2022-08-18T10:43:45.620Z,6.07
2022-08-18T10:46:27.740Z,5.32
2022-08-18T10:49:12.512Z,5.05
2022-08-18T10:51:57.937Z,6.55
2022-08-18T10:55:02.855Z,5.97
2022-08-18T10:58:14.247Z,8.50
2022-08-18T11:00:47.731Z,4.82
2022-08-18T11:06:25.781Z,5.68
2022-08-18T11:09:02.355Z,6.25
2022-08-18T11:11:52.776Z,5.35
2022-08-18T11:14:34.706Z,7.07
2022-08-18T11:17:13.276Z,6.82
2022-08-18T11:19:50.681Z,6.53
2022-08-18T11:22:34.222Z,6.55
2022-08-18T11:28:30.311Z,6.70
2022-08-18T11:31:03.428Z,5.13
2022-08-18T11:33:42.394Z,5.85
2022-08-18T11:36:16.275Z,7.53
2022-08-18T11:38:56.757Z,6.20
2022-08-18T11:41:48.054Z,5.80
2022-08-18T11:44:25.635Z,6.63
2022-08-18T11:47:23.636Z,5.47
2022-08-18T11:50:12.508Z,6.30
2022-08-18T11:52:54.419Z,6.85
2022-08-18T11:55:34.488Z,6.07
2022-08-18T11:58:12.718Z,6.35
2022-08-18T12:00:48.345Z,5.35
2022-08-18T12:03:38.137Z,5.43
2022-08-18T12:06:21.297Z,8.52
2022-08-18T12:09:04.475Z,8.40
2022-08-18T12:11:48.763Z,6.35
2022-08-18T12:14:35.237Z,5.82
2022-08-18T12:17:08.701Z,8.48
2022-08-18T12:19:41.724Z,8.38
2022-08-18T12:22:20.615Z,6.47
2022-08-18T12:24:55.170Z,6.63
2022-08-18T12:27:32.165Z,6.53
2022-08-18T12:30:06.046Z,9.02
2022-08-18T12:32:49.772Z,7.13
2022-08-18T12:35:22.912Z,8.07
2022-08-18T12:38:00.176Z,7.47
2022-08-18T12:40:35.404Z,6.90
2022-08-18T12:43:08.127Z,7.57
2022-08-18T12:45:41.735Z,7.55
2022-08-18T12:48:13.949Z,7.25
2022-08-18T12:50:54.411Z,8.60
2022-08-18T12:53:58.230Z,7.85
2022-08-18T12:56:26.610Z,9.93
2022-08-18T12:59:04.318Z,6.85
2022-08-18T13:01:39.773Z,7.03
2022-08-18T13:04:14.012Z,7.53
2022-08-18T13:06:59.978Z,8.18
2022-08-18T13:09:53.223Z,8.80
2022-08-18T13:12:27.493Z,6.82
2022-08-18T13:14:59.424Z,7.80
2022-08-18T13:20:10.169Z,8.57
2022-08-18T13:22:43.312Z,7.47
2022-08-18T13:25:28.665Z,7.20
2022-08-18T13:28:06.063Z,7.38
2022-08-18T13:30:37.880Z,8.68
2022-08-18T13:33:34.716Z,7.95
2022-08-18T13:38:35.560Z,7.45
2022-08-18T13:41:09.877Z,8.07
2022-08-18T13:43:48.521Z,18.52
2022-08-18T13:49:03.647Z,7.65
2022-08-18T13:51:36.607Z,11.95
2022-08-18T13:57:04.526Z,7.03
2022-08-18T13:59:38.266Z,7.82
2022-08-18T14:02:19.379Z,10.93
2022-08-18T14:04:59.092Z,7.53
2022-08-18T14:07:32.397Z,8.10
2022-08-18T14:10:13.254Z,6.65
2022-08-18T14:12:46.209Z,9.90
2022-08-18T14:15:19.704Z,8.05
2022-08-18T14:20:48.278Z,7.95
2022-08-18T14:23:39.389Z,9.65
2022-08-18T14:26:42.370Z,9.50
2022-08-18T14:29:16.488Z,10.77
2022-08-18T14:31:49.796Z,7.72
2022-08-18T14:34:26.163Z,8.57
2022-08-18T14:37:01.453Z,10.10
2022-08-18T14:39:33.492Z,11.73
2022-08-18T14:42:05.808Z,10.40
2022-08-18T14:44:39.305Z,11.27
2022-08-18T14:47:14.092Z,11.85
2022-08-18T14:49:57.955Z,13.57
2022-08-18T14:52:30.377Z,11.02
2022-08-18T14:55:02.223Z,9.55
2022-08-18T14:57:34.498Z,9.88
2022-08-18T15:00:12.643Z,9.38
2022-08-18T15:02:49.455Z,12.32
2022-08-18T15:05:24.422Z,9.65
2022-08-18T15:07:57.243Z,8.75
2022-08-18T15:13:04.047Z,9.98
2022-08-18T15:15:50.968Z,9.88
2022-08-18T15:18:24.801Z,10.57
2022-08-18T15:21:19.704Z,9.23
2022-08-18T15:24:29.321Z,11.27
2022-08-18T15:27:06.128Z,9.55
2022-08-18T15:29:44.853Z,11.70
2022-08-18T15:32:16.975Z,9.55
2022-08-18T15:34:52.380Z,10.10
2022-08-18T15:37:24.666Z,9.40
2022-08-18T15:40:21.890Z,9.63
2022-08-18T15:43:10.167Z,10.32
2022-08-18T15:45:56.380Z,9.68
2022-08-18T15:48:30.400Z,10.38
2022-08-18T15:53:45.742Z,10.97
2022-08-18T15:56:25.904Z,9.25
2022-08-18T15:59:00.506Z,12.10
2022-08-18T16:01:33.803Z,10.77
2022-08-18T16:04:07.244Z,9.80
2022-08-18T16:06:41.680Z,10.50
2022-08-18T16:09:14.268Z,10.15
2022-08-18T16:11:48.024Z,12.10
2022-08-18T16:14:19.879Z,9.93
2022-08-18T16:16:53.186Z,10.70
2022-08-18T16:19:25.686Z,9.02
2022-08-18T16:22:06.679Z,9.13
2022-08-18T16:24:38.695Z,8.82
2022-08-18T16:27:13.075Z,9.10
2022-08-18T16:29:44.924Z,10.43
2022-08-18T16:32:17.752Z,9.98
2022-08-18T16:37:22.882Z,9.73
2022-08-18T16:39:55.256Z,9.35
2022-08-18T16:42:29.812Z,11.38
2022-08-18T16:45:03.135Z,9.70
2022-08-18T16:47:41.093Z,9.05
2022-08-18T16:50:16.554Z,29.42
2022-08-18T16:52:48.382Z,11.63
2022-08-18T16:58:15.507Z,9.00
2022-08-18T17:01:05.982Z,9.15
2022-08-18T17:03:57.073Z,8.82
2022-08-18T17:06:28.956Z,7.38
2022-08-18T17:09:09.848Z,8.38
2022-08-18T17:11:51.459Z,8.90
2022-08-18T17:14:28.272Z,9.27
2022-08-18T17:17:01.013Z,8.00
2022-08-18T17:19:34.966Z,8.45
2022-08-18T17:22:06.826Z,9.73
2022-08-18T17:27:37.616Z,8.93
2022-08-18T17:30:17.114Z,9.00
2022-08-18T17:33:00.593Z,9.32
2022-08-18T17:35:40.863Z,7.68
2022-08-18T17:38:22.449Z,7.18
2022-08-18T17:40:57.650Z,7.80
2022-08-18T17:43:33.033Z,8.27
2022-08-18T17:46:09.211Z,9.05
2022-08-18T17:48:53.304Z,10.32
2022-08-18T17:51:34.112Z,11.10
2022-08-18T17:54:25.160Z,10.02
2022-08-18T17:57:25.610Z,10.73
2022-08-18T18:00:16.830Z,11.32
2022-08-18T18:02:48.734Z,9.90
2022-08-18T18:05:21.992Z,12.38
2022-08-18T18:07:58.481Z,10.93
2022-08-18T18:11:04.267Z,10.05
2022-08-18T18:13:36.442Z,13.00
2022-08-18T18:19:05.768Z,15.38
2022-08-18T18:21:57.631Z,11.90
2022-08-18T18:24:33.486Z,8.73
2022-08-18T18:27:50.086Z,11.98
2022-08-18T18:30:28.211Z,13.13
2022-08-18T18:33:04.821Z,12.40
2022-08-18T18:35:53.450Z,12.77
2022-08-18T18:38:32.325Z,10.30
2022-08-18T18:41:20.676Z,11.13
2022-08-18T18:44:10.008Z,10.75
2022-08-18T18:47:02.399Z,11.98
2022-08-18T18:49:53.699Z,11.80
2022-08-18T18:52:52.427Z,13.85
2022-08-18T18:55:28.203Z,14.95
2022-08-18T18:58:22.480Z,12.82
2022-08-18T19:00:59.597Z,13.93
2022-08-18T19:03:42.004Z,12.93
2022-08-18T19:06:17.338Z,11.65
2022-08-18T19:09:04.077Z,12.50
2022-08-18T19:11:57.680Z,11.93
2022-08-18T19:14:59.590Z,12.73
2022-08-18T19:17:39.134Z,12.02
2022-08-18T19:20:25.278Z,13.43
2022-08-18T19:23:06.296Z,13.68
2022-08-18T19:25:47.216Z,13.82
2022-08-18T19:29:12.629Z,13.20
2022-08-18T19:31:54.655Z,13.77
2022-08-18T19:34:33.197Z,14.27
2022-08-18T19:37:18.275Z,11.43
2022-08-18T19:40:12.199Z,14.77
2022-08-18T19:42:54.435Z,15.55
2022-08-18T19:45:46.094Z,12.30
2022-08-18T19:48:27.088Z,13.23
2022-08-18T19:51:12.775Z,11.05
2022-08-18T19:54:04.277Z,9.95
2022-08-18T19:56:58.901Z,10.30
2022-08-18T19:59:57.762Z,8.55
2022-08-18T20:02:52.951Z,15.52
2022-08-18T20:05:33.459Z,14.30
2022-08-18T20:08:20.758Z,14.43
2022-08-18T20:11:58.594Z,12.45
2022-08-18T20:15:25.515Z,11.85
2022-08-18T20:17:57.327Z,10.20
2022-08-18T20:20:40.666Z,9.48
2022-08-18T20:23:35.245Z,9.73
2022-08-18T20:26:47.290Z,10.35
2022-08-18T20:29:41.951Z,14.07
2022-08-18T20:32:31.948Z,8.90
2022-08-18T20:35:18.897Z,10.15
2022-08-18T20:37:51.529Z,12.68
2022-08-18T20:40:49.201Z,12.50
2022-08-18T20:43:34.292Z,10.25
2022-08-18T20:46:31.544Z,14.45
2022-08-18T20:49:33.887Z,12.80
2022-08-18T20:52:29.110Z,14.50
2022-08-18T20:55:12.079Z,11.80
2022-08-18T20:57:44.231Z,12.03
2022-08-18T21:00:26.671Z,11.02
2022-08-18T21:03:05.366Z,10.60
2022-08-18T21:05:41.323Z,9.93
2022-08-18T21:08:16.486Z,8.75
2022-08-18T21:10:54.781Z,10.82
2022-08-18T21:13:31.262Z,9.23
2022-08-18T21:16:04.225Z,9.02
2022-08-18T21:18:37.996Z,7.40
2022-08-18T21:21:19.126Z,8.18
2022-08-18T21:24:01.744Z,7.45
2022-08-18T21:26:34.642Z,9.35
2022-08-18T21:29:13.994Z,8.90
2022-08-18T21:31:48.346Z,5.57
2022-08-18T21:34:33.369Z,7.68
2022-08-18T21:37:10.598Z,6.82
2022-08-18T21:40:01.466Z,5.07
2022-08-18T21:42:45.270Z,4.43
2022-08-18T21:45:23.603Z,6.25
2022-08-18T21:48:01.898Z,6.18
2022-08-18T21:50:35.436Z,10.95
2022-08-18T21:53:14.929Z,8.40
2022-08-18T21:55:51.434Z,4.65
2022-08-18T21:58:51.358Z,4.53
2022-08-18T22:01:31.525Z,5.57
2022-08-18T22:04:22.066Z,4.75
2022-08-18T22:06:58.504Z,4.55
2022-08-18T22:09:53.774Z,4.78
2022-08-18T22:12:49.501Z,5.63
2022-08-18T22:15:27.862Z,5.15
2022-08-18T22:18:05.521Z,4.97
2022-08-18T22:20:43.676Z,5.07
2022-08-18T22:23:34.360Z,5.57
2022-08-18T22:26:09.282Z,5.22
2022-08-18T22:29:06.522Z,5.05
2022-08-18T22:31:44.948Z,5.50
2022-08-18T22:34:27.801Z,5.97
2022-08-18T22:37:19.315Z,5.47
2022-08-18T22:39:57.835Z,5.80
2022-08-18T22:42:33.749Z,5.68
2022-08-18T22:45:10.237Z,6.30
2022-08-18T22:47:43.238Z,5.90
2022-08-18T22:50:17.775Z,4.60
2022-08-18T22:52:49.733Z,5.10
2022-08-18T22:55:24.219Z,8.27
2022-08-18T22:57:57.190Z,7.72
2022-08-18T23:00:30.044Z,7.22
2022-08-18T23:03:02.781Z,6.18
2022-08-18T23:05:35.015Z,5.47
2022-08-18T23:08:08.031Z,9.18
2022-08-18T23:10:39.886Z,6.05
2022-08-18T23:15:47.616Z,7.53
2022-08-18T23:18:21.993Z,6.22
2022-08-18T23:20:59.497Z,6.63
2022-08-18T23:23:32.568Z,5.78
2022-08-18T23:26:04.874Z,5.57
2022-08-18T23:31:08.937Z,5.63
2022-08-18T23:33:45.171Z,7.63
2022-08-18T23:36:17.810Z,7.50
2022-08-18T23:38:50.506Z,8.48
2022-08-18T23:43:55.157Z,6.22
2022-08-18T23:46:30.669Z,7.07
2022-08-18T23:49:05.066Z,7.93
2022-08-18T23:51:46.264Z,9.68
2022-08-18T23:54:24.440Z,6.28
2022-08-18T23:56:57.931Z,6.72
2022-08-18T23:59:30.051Z,7.30
